createdAt,value
2017-11-15T00:00:57.931Z,1.60
2017-11-15T00:01:57.801Z,1.30
2017-11-15T00:02:57.669Z,1.80
2017-11-15T00:03:57.528Z,1.10
2017-11-15T00:04:57.392Z,1.20
2017-11-15T00:05:57.255Z,1.30
2017-11-15T00:06:57.121Z,1.30
2017-11-15T00:07:56.986Z,1.30
2017-11-15T00:08:56.854Z,1.50
2017-11-15T00:09:56.717Z,1.20
2017-11-15T00:10:56.586Z,1.20
2017-11-15T00:11:56.448Z,1.10
2017-11-15T00:12:56.314Z,1.10
2017-11-15T00:13:56.180Z,1.10
2017-11-15T00:14:56.044Z,1.50
2017-11-15T00:15:55.912Z,1.20
2017-11-15T00:16:55.780Z,1.20
2017-11-15T00:17:55.642Z,1.30
2017-11-15T00:18:55.511Z,1.20
2017-11-15T00:19:55.377Z,1.30
2017-11-15T00:20:55.238Z,1.70
2017-11-15T00:21:55.105Z,1.30
2017-11-15T00:22:54.969Z,1.30
2017-11-15T00:23:54.832Z,1.30
2017-11-15T00:24:54.700Z,1.20
2017-11-15T00:25:54.567Z,1.20
2017-11-15T00:26:54.430Z,1.20
2017-11-15T00:27:54.295Z,2.20
2017-11-15T00:28:54.161Z,1.20
2017-11-15T00:29:54.029Z,1.00
2017-11-15T00:30:53.892Z,1.10
2017-11-15T00:31:53.755Z,1.00
2017-11-15T00:32:53.624Z,1.00
2017-11-15T00:33:53.490Z,1.20
2017-11-15T00:34:53.358Z,1.20
2017-11-15T00:35:53.218Z,1.10
2017-11-15T00:36:53.084Z,1.10
2017-11-15T00:37:52.948Z,1.10
2017-11-15T00:38:52.813Z,1.10
2017-11-15T00:39:52.679Z,1.10
2017-11-15T00:40:52.545Z,1.10
2017-11-15T00:41:52.410Z,1.10
2017-11-15T00:42:52.276Z,1.00
2017-11-15T00:43:52.140Z,1.10
2017-11-15T00:44:52.006Z,1.30
2017-11-15T00:45:51.872Z,1.00
2017-11-15T00:46:51.739Z,1.60
2017-11-15T00:47:51.600Z,1.80
2017-11-15T00:48:51.468Z,1.40
2017-11-15T00:49:51.335Z,1.40
2017-11-15T00:50:51.208Z,1.10
2017-11-15T00:51:51.068Z,1.40
2017-11-15T00:52:50.927Z,1.40
2017-11-15T00:53:50.795Z,1.20
2017-11-15T00:54:50.660Z,1.70
2017-11-15T00:55:50.524Z,1.10
2017-11-15T00:56:50.389Z,1.20
2017-11-15T00:57:50.257Z,2.20
2017-11-15T00:58:50.118Z,1.20
2017-11-15T00:59:49.984Z,1.10
2017-11-15T01:00:49.850Z,1.00
2017-11-15T01:01:49.715Z,1.40
2017-11-15T01:02:49.583Z,1.10
2017-11-15T01:03:49.444Z,1.00
2017-11-15T01:04:49.309Z,1.40
2017-11-15T01:05:49.173Z,1.10
2017-11-15T01:06:49.040Z,1.00
2017-11-15T01:07:48.905Z,1.30
2017-11-15T01:08:48.771Z,1.50
2017-11-15T01:09:48.635Z,0.90
2017-11-15T01:10:48.506Z,0.90
2017-11-15T01:11:48.366Z,0.80
2017-11-15T01:12:48.231Z,1.00
2017-11-15T01:13:48.099Z,1.10
2017-11-15T01:14:47.964Z,0.90
2017-11-15T01:15:47.827Z,1.10
2017-11-15T01:16:47.692Z,1.60
2017-11-15T01:17:47.556Z,1.10
2017-11-15T01:18:47.424Z,0.80
2017-11-15T01:19:47.287Z,1.20
2017-11-15T01:20:47.156Z,1.40
2017-11-15T01:21:47.019Z,1.20
2017-11-15T01:22:46.885Z,1.60
2017-11-15T01:23:46.747Z,0.90
2017-11-15T01:24:46.612Z,1.10
2017-11-15T01:25:46.480Z,1.00
2017-11-15T01:26:46.348Z,1.20
2017-11-15T01:27:46.211Z,0.90
2017-11-15T01:28:46.079Z,1.00
2017-11-15T01:29:45.941Z,0.90
2017-11-15T01:30:45.810Z,0.90
2017-11-15T01:31:45.692Z,1.00
2017-11-15T01:32:45.535Z,1.00
2017-11-15T01:33:45.404Z,1.30
2017-11-15T01:34:45.272Z,0.90
2017-11-15T01:35:45.133Z,0.80
2017-11-15T01:36:44.998Z,1.90
2017-11-15T01:37:44.865Z,0.80
2017-11-15T01:38:44.727Z,1.10
2017-11-15T01:39:44.593Z,1.60
2017-11-15T01:40:44.462Z,1.70
2017-11-15T01:41:44.326Z,1.30
2017-11-15T01:42:44.196Z,0.80
2017-11-15T01:43:44.053Z,1.00
2017-11-15T01:44:43.922Z,0.80
2017-11-15T01:45:43.786Z,0.80
2017-11-15T01:46:43.651Z,0.80
2017-11-15T01:47:43.517Z,2.00
2017-11-15T01:48:43.384Z,1.00
2017-11-15T01:49:43.247Z,1.10
2017-11-15T01:50:43.111Z,0.90
2017-11-15T01:51:42.982Z,0.70
2017-11-15T01:52:42.843Z,0.90
2017-11-15T01:53:42.709Z,0.90
2017-11-15T01:54:42.596Z,1.00
2017-11-15T01:55:42.438Z,0.90
2017-11-15T01:56:42.306Z,0.90
2017-11-15T01:57:42.174Z,0.70
2017-11-15T01:58:42.035Z,0.70
2017-11-15T01:59:41.902Z,0.70
2017-11-15T02:00:41.767Z,0.80
2017-11-15T02:01:41.630Z,0.80
2017-11-15T02:02:41.497Z,0.70
2017-11-15T02:03:41.358Z,1.00
2017-11-15T02:04:41.223Z,0.80
2017-11-15T02:05:41.092Z,1.90
2017-11-15T02:06:40.958Z,0.80
2017-11-15T02:07:40.822Z,1.30
2017-11-15T02:08:40.689Z,0.80
2017-11-15T02:09:40.549Z,0.90
2017-11-15T02:10:40.417Z,0.80
2017-11-15T02:11:40.281Z,0.70
2017-11-15T02:12:40.145Z,0.90
2017-11-15T02:13:40.012Z,1.20
2017-11-15T02:14:39.878Z,1.10
2017-11-15T02:15:39.744Z,1.30
2017-11-15T02:16:39.608Z,0.80
2017-11-15T02:17:39.473Z,1.00
2017-11-15T02:18:39.336Z,0.80
2017-11-15T02:19:39.202Z,0.80
2017-11-15T02:20:39.069Z,0.90
2017-11-15T02:21:38.933Z,0.80
2017-11-15T02:22:38.800Z,0.70
2017-11-15T02:23:38.674Z,1.30
2017-11-15T02:24:38.531Z,1.10
2017-11-15T02:25:38.397Z,1.10
2017-11-15T02:26:38.261Z,0.90
2017-11-15T02:27:38.127Z,1.00
2017-11-15T02:28:37.988Z,0.60
2017-11-15T02:29:37.857Z,0.70
2017-11-15T02:30:37.723Z,0.70
2017-11-15T02:31:37.587Z,0.80
2017-11-15T02:32:37.456Z,1.00
2017-11-15T02:33:37.324Z,0.80
2017-11-15T02:34:37.189Z,0.70
2017-11-15T02:35:37.049Z,0.80
2017-11-15T02:36:36.915Z,0.60
2017-11-15T02:37:36.781Z,0.70
2017-11-15T02:38:36.646Z,0.60
2017-11-15T02:39:36.509Z,0.70
2017-11-15T02:40:36.375Z,0.90
2017-11-15T02:41:36.251Z,0.70
2017-11-15T02:42:36.104Z,0.70
2017-11-15T02:43:35.981Z,0.70
2017-11-15T02:44:35.838Z,1.00
2017-11-15T02:45:35.714Z,0.90
2017-11-15T02:46:35.568Z,3.20
2017-11-15T02:47:35.434Z,1.50
2017-11-15T02:48:35.296Z,0.90
2017-11-15T02:49:35.164Z,0.80
2017-11-15T02:50:35.028Z,0.90
2017-11-15T02:51:34.894Z,0.80
2017-11-15T02:52:34.759Z,1.00
2017-11-15T02:53:34.639Z,0.90
2017-11-15T02:54:34.489Z,0.90
2017-11-15T02:55:34.353Z,0.70
2017-11-15T02:56:34.222Z,0.60
2017-11-15T02:57:34.085Z,0.70
2017-11-15T02:58:33.951Z,1.90
2017-11-15T02:59:33.816Z,0.80
2017-11-15T03:00:33.682Z,0.90
2017-11-15T03:01:33.545Z,1.20
2017-11-15T03:02:33.410Z,0.70
2017-11-15T03:03:33.279Z,0.70
2017-11-15T03:04:33.145Z,0.60
2017-11-15T03:05:33.006Z,0.70
2017-11-15T03:06:32.873Z,1.10
2017-11-15T03:07:32.737Z,1.00
2017-11-15T03:08:32.604Z,0.70
2017-11-15T03:09:32.468Z,0.70
2017-11-15T03:10:32.333Z,0.70
2017-11-15T03:11:32.199Z,0.90
2017-11-15T03:12:32.064Z,0.60
2017-11-15T03:13:31.932Z,1.20
2017-11-15T03:14:31.796Z,1.50
2017-11-15T03:15:31.660Z,1.50
2017-11-15T03:16:31.525Z,0.90
2017-11-15T03:17:31.388Z,0.70
2017-11-15T03:18:31.257Z,0.80
2017-11-15T03:19:31.120Z,0.90
2017-11-15T03:20:30.989Z,0.90
2017-11-15T03:21:30.853Z,0.70
2017-11-15T03:22:30.717Z,1.70
2017-11-15T03:23:30.581Z,0.80
2017-11-15T03:24:30.449Z,0.70
2017-11-15T03:25:30.312Z,0.70
2017-11-15T03:26:30.178Z,0.90
2017-11-15T03:27:30.045Z,0.80
2017-11-15T03:28:29.907Z,1.00
2017-11-15T03:29:29.771Z,1.00
2017-11-15T03:30:29.638Z,1.00
2017-11-15T03:31:29.504Z,1.00
2017-11-15T03:32:29.371Z,0.80
2017-11-15T03:33:29.235Z,1.30
2017-11-15T03:34:29.101Z,0.80
2017-11-15T03:35:28.963Z,0.90
2017-11-15T03:36:28.830Z,1.40
2017-11-15T03:37:28.696Z,0.80
2017-11-15T03:38:28.561Z,0.80
2017-11-15T03:39:28.425Z,0.70
2017-11-15T03:40:28.291Z,1.10
2017-11-15T03:41:28.156Z,0.60
2017-11-15T03:42:28.019Z,0.80
2017-11-15T03:43:27.885Z,1.00
2017-11-15T03:44:27.750Z,1.00
2017-11-15T03:45:27.617Z,0.80
2017-11-15T03:46:27.483Z,0.70
2017-11-15T03:47:27.349Z,0.70
2017-11-15T03:48:27.219Z,0.70
2017-11-15T03:49:27.076Z,0.90
2017-11-15T03:50:26.942Z,0.70
2017-11-15T03:51:26.805Z,1.00
2017-11-15T03:52:26.674Z,0.70
2017-11-15T03:53:26.536Z,0.70
2017-11-15T03:54:26.401Z,0.70
2017-11-15T03:55:26.266Z,0.70
2017-11-15T03:56:26.134Z,0.70
2017-11-15T03:57:25.995Z,1.20
2017-11-15T03:58:25.860Z,0.70
2017-11-15T03:59:25.731Z,1.10
2017-11-15T04:00:25.594Z,1.10
2017-11-15T04:01:25.474Z,0.90
2017-11-15T04:02:25.321Z,0.80
2017-11-15T04:03:25.185Z,0.70
2017-11-15T04:04:25.051Z,1.20
2017-11-15T04:05:24.921Z,0.70
2017-11-15T04:06:24.779Z,1.30
2017-11-15T04:07:24.647Z,1.10
2017-11-15T04:08:24.515Z,1.20
2017-11-15T04:09:24.376Z,0.90
2017-11-15T04:10:24.243Z,0.70
2017-11-15T04:11:24.108Z,1.00
2017-11-15T04:12:23.973Z,0.60
2017-11-15T04:13:23.838Z,0.60
2017-11-15T04:14:23.703Z,0.60
2017-11-15T04:15:23.568Z,0.80
2017-11-15T04:16:23.432Z,0.90
2017-11-15T04:17:23.297Z,1.10
2017-11-15T04:18:23.163Z,0.90
2017-11-15T04:19:23.028Z,0.60
2017-11-15T04:20:22.892Z,0.60
2017-11-15T04:21:22.758Z,0.60
2017-11-15T04:22:22.624Z,0.70
2017-11-15T04:23:22.489Z,0.70
2017-11-15T04:24:22.359Z,0.70
2017-11-15T04:25:22.221Z,0.70
2017-11-15T04:26:22.084Z,0.80
2017-11-15T04:27:21.949Z,0.60
2017-11-15T04:28:21.813Z,0.60
2017-11-15T04:29:21.682Z,0.60
2017-11-15T04:30:21.545Z,0.80
2017-11-15T04:31:21.409Z,0.60
2017-11-15T04:32:21.274Z,0.90
2017-11-15T04:33:21.139Z,0.60
2017-11-15T04:34:21.005Z,0.60
2017-11-15T04:35:20.871Z,0.60
2017-11-15T04:36:20.735Z,0.60
2017-11-15T04:37:20.600Z,1.10
2017-11-15T04:38:20.465Z,0.60
2017-11-15T04:39:20.330Z,0.70
2017-11-15T04:40:20.196Z,0.60
2017-11-15T04:41:20.061Z,0.70
2017-11-15T04:42:19.926Z,0.60
2017-11-15T04:43:19.790Z,0.90
2017-11-15T04:44:19.658Z,0.70
2017-11-15T04:45:19.526Z,0.70
2017-11-15T04:46:19.384Z,0.60
2017-11-15T04:47:19.257Z,0.60
2017-11-15T04:48:19.115Z,0.70
2017-11-15T04:49:18.983Z,0.60
2017-11-15T04:50:18.849Z,0.90
2017-11-15T04:51:18.712Z,0.60
2017-11-15T04:52:18.578Z,0.60
2017-11-15T04:53:18.445Z,0.70
2017-11-15T04:54:18.310Z,1.20
2017-11-15T04:55:18.173Z,0.70
2017-11-15T04:56:18.040Z,0.80
2017-11-15T04:57:17.930Z,0.70
2017-11-15T04:58:17.770Z,0.70
2017-11-15T04:59:17.634Z,0.70
2017-11-15T05:00:17.499Z,0.90
2017-11-15T05:01:17.365Z,0.70
2017-11-15T05:02:17.230Z,1.20
2017-11-15T05:03:17.099Z,0.80
2017-11-15T05:04:16.966Z,1.00
2017-11-15T05:05:16.826Z,0.90
2017-11-15T05:06:16.689Z,0.70
2017-11-15T05:07:16.556Z,0.80
2017-11-15T05:08:16.421Z,0.60
2017-11-15T05:09:16.288Z,0.50
2017-11-15T05:10:16.154Z,0.60
2017-11-15T05:11:16.020Z,1.30
2017-11-15T05:12:15.884Z,1.50
2017-11-15T05:13:15.747Z,0.60
2017-11-15T05:14:15.617Z,0.60
2017-11-15T05:15:15.479Z,0.70
2017-11-15T05:16:15.346Z,0.50
2017-11-15T05:17:15.214Z,0.70
2017-11-15T05:18:15.075Z,0.60
2017-11-15T05:19:14.939Z,0.70
2017-11-15T05:20:14.804Z,0.90
2017-11-15T05:21:14.671Z,1.00
2017-11-15T05:22:14.536Z,0.90
2017-11-15T05:23:14.401Z,0.80
2017-11-15T05:24:14.271Z,0.60
2017-11-15T05:25:14.132Z,0.50
2017-11-15T05:26:13.996Z,0.60
2017-11-15T05:27:13.865Z,0.60
2017-11-15T05:28:13.731Z,0.60
2017-11-15T05:29:13.590Z,0.60
2017-11-15T05:30:13.454Z,0.80
2017-11-15T05:31:13.320Z,0.60
2017-11-15T05:32:13.191Z,0.60
2017-11-15T05:33:13.058Z,0.90
2017-11-15T05:34:12.918Z,0.80
2017-11-15T05:35:12.781Z,0.60
2017-11-15T05:36:12.648Z,0.60
2017-11-15T05:37:12.514Z,0.70
2017-11-15T05:38:12.382Z,1.10
2017-11-15T05:39:12.272Z,0.60
2017-11-15T05:40:12.110Z,1.10
2017-11-15T05:41:11.978Z,0.60
2017-11-15T05:42:11.843Z,0.80
2017-11-15T05:43:11.715Z,1.10
2017-11-15T05:44:11.605Z,0.70
2017-11-15T05:45:11.438Z,0.70
2017-11-15T05:46:11.301Z,0.70
2017-11-15T05:47:11.175Z,0.70
2017-11-15T05:48:11.033Z,1.50
2017-11-15T05:49:10.898Z,0.60
2017-11-15T05:50:10.764Z,0.70
2017-11-15T05:51:10.630Z,0.70
2017-11-15T05:52:10.496Z,0.50
2017-11-15T05:53:10.358Z,0.70
2017-11-15T05:54:10.227Z,0.90
2017-11-15T05:55:10.085Z,0.70
2017-11-15T05:56:09.951Z,0.70
2017-11-15T05:57:09.823Z,0.80
2017-11-15T05:58:09.687Z,1.30
2017-11-15T05:59:09.546Z,0.80
2017-11-15T06:00:09.418Z,0.60
2017-11-15T06:01:09.280Z,1.10
2017-11-15T06:02:09.147Z,0.70
2017-11-15T06:03:09.013Z,1.10
2017-11-15T06:04:08.923Z,0.70
2017-11-15T06:05:08.746Z,0.60
2017-11-15T06:06:08.606Z,0.70
2017-11-15T06:07:08.491Z,1.50
2017-11-15T06:08:08.337Z,0.70
2017-11-15T06:09:08.203Z,1.20
2017-11-15T06:10:08.165Z,0.60
2017-11-15T06:11:08.010Z,1.20
2017-11-15T06:12:07.847Z,0.60
2017-11-15T06:13:07.694Z,0.60
2017-11-15T06:14:07.578Z,0.60
2017-11-15T06:15:07.394Z,0.60
2017-11-15T06:16:07.256Z,0.60
2017-11-15T06:17:07.125Z,0.60
2017-11-15T06:18:07.066Z,1.70
2017-11-15T06:19:06.976Z,0.60
2017-11-15T06:20:06.804Z,0.70
2017-11-15T06:21:06.646Z,0.70
2017-11-15T06:22:06.509Z,0.60
2017-11-15T06:23:06.345Z,0.70
2017-11-15T06:24:06.234Z,0.70
2017-11-15T06:25:06.048Z,2.40
2017-11-15T06:26:06.070Z,0.80
2017-11-15T06:27:05.773Z,0.60
2017-11-15T06:28:05.648Z,0.60
2017-11-15T06:29:05.519Z,0.70
2017-11-15T06:30:05.442Z,0.60
2017-11-15T06:31:05.232Z,1.00
2017-11-15T06:32:05.096Z,0.50
2017-11-15T06:33:05.033Z,0.60
2017-11-15T06:34:04.857Z,0.80
2017-11-15T06:35:04.699Z,0.70
2017-11-15T06:36:04.577Z,0.70
2017-11-15T06:37:04.494Z,0.60
2017-11-15T06:38:04.291Z,0.80
2017-11-15T06:39:04.154Z,0.70
2017-11-15T06:40:04.023Z,0.60
2017-11-15T06:41:03.884Z,0.60
2017-11-15T06:42:03.751Z,0.60
2017-11-15T06:43:03.615Z,0.60
2017-11-15T06:44:03.483Z,0.80
2017-11-15T06:45:03.344Z,0.70
2017-11-15T06:46:03.211Z,0.80
2017-11-15T06:47:03.078Z,0.80
2017-11-15T06:48:02.938Z,0.80
2017-11-15T06:49:02.806Z,0.70
2017-11-15T06:50:02.675Z,0.70
2017-11-15T06:51:02.560Z,0.60
2017-11-15T06:52:02.406Z,0.70
2017-11-15T06:53:02.273Z,1.10
2017-11-15T06:54:02.132Z,0.70
2017-11-15T06:55:01.998Z,1.10
2017-11-15T06:56:01.863Z,0.80
2017-11-15T06:57:01.728Z,0.70
2017-11-15T06:58:01.599Z,0.90
2017-11-15T06:59:01.459Z,0.50
2017-11-15T07:00:01.323Z,0.70
2017-11-15T07:01:01.188Z,0.80
2017-11-15T07:02:01.057Z,0.70
2017-11-15T07:03:00.920Z,0.60
2017-11-15T07:04:00.788Z,0.60
2017-11-15T07:05:00.651Z,0.60
2017-11-15T07:06:00.515Z,1.00
2017-11-15T07:07:00.381Z,0.60
2017-11-15T07:08:00.246Z,0.90
2017-11-15T07:09:00.111Z,0.70
2017-11-15T07:09:59.979Z,1.20
2017-11-15T07:10:59.841Z,0.60
2017-11-15T07:11:59.706Z,0.60
2017-11-15T07:12:59.576Z,1.70
2017-11-15T07:13:59.440Z,0.60
2017-11-15T07:14:59.307Z,0.70
2017-11-15T07:15:59.171Z,0.70
2017-11-15T07:16:59.037Z,0.60
2017-11-15T07:17:58.902Z,0.90
2017-11-15T07:18:58.767Z,1.50
2017-11-15T07:19:58.637Z,0.60
2017-11-15T07:20:58.498Z,0.70
2017-11-15T07:21:58.365Z,0.70
2017-11-15T07:22:58.229Z,0.70
2017-11-15T07:23:58.096Z,1.00
2017-11-15T07:24:57.961Z,1.90
2017-11-15T07:25:57.825Z,1.30
2017-11-15T07:26:57.692Z,1.20
2017-11-15T07:27:57.558Z,0.90
2017-11-15T07:28:57.423Z,1.20
2017-11-15T07:29:57.289Z,0.60
2017-11-15T07:30:57.154Z,0.60
2017-11-15T07:31:57.019Z,0.60
2017-11-15T07:32:56.885Z,0.80
2017-11-15T07:33:56.753Z,0.70
2017-11-15T07:34:56.618Z,0.60
2017-11-15T07:35:56.485Z,0.60
2017-11-15T07:36:56.350Z,1.00
2017-11-15T07:37:56.222Z,0.70
2017-11-15T07:38:56.079Z,0.70
2017-11-15T07:39:55.946Z,0.80
2017-11-15T07:40:55.809Z,0.60
2017-11-15T07:41:55.679Z,0.80
2017-11-15T07:42:55.544Z,0.60
2017-11-15T07:43:55.409Z,0.70
2017-11-15T07:44:55.272Z,1.30
2017-11-15T07:45:55.141Z,0.80
2017-11-15T07:46:55.005Z,0.60
2017-11-15T07:47:54.870Z,1.00
2017-11-15T07:48:54.737Z,0.60
2017-11-15T07:49:54.603Z,0.60
2017-11-15T07:50:54.470Z,0.60
2017-11-15T07:51:54.354Z,1.30
2017-11-15T07:52:54.200Z,0.70
2017-11-15T07:53:54.066Z,0.80
2017-11-15T07:54:53.931Z,0.70
2017-11-15T07:55:53.796Z,0.80
2017-11-15T07:56:53.662Z,0.70
2017-11-15T07:57:53.528Z,0.80
2017-11-15T07:58:53.394Z,1.80
2017-11-15T07:59:53.260Z,0.60
2017-11-15T08:00:53.128Z,0.60
2017-11-15T08:01:52.992Z,0.80
2017-11-15T08:02:52.856Z,2.20
2017-11-15T08:03:52.722Z,0.70
2017-11-15T08:04:52.590Z,0.60
2017-11-15T08:05:52.453Z,0.80
2017-11-15T08:06:52.320Z,0.70
2017-11-15T08:07:52.190Z,0.60
2017-11-15T08:08:52.056Z,0.70
2017-11-15T08:09:51.932Z,0.70
2017-11-15T08:10:51.796Z,0.90
2017-11-15T08:11:51.653Z,0.80
2017-11-15T08:12:51.516Z,0.90
2017-11-15T08:13:51.383Z,0.80
2017-11-15T08:14:52.157Z,0.90
2017-11-15T08:15:51.119Z,0.60
2017-11-15T08:16:50.983Z,0.70
2017-11-15T08:17:50.863Z,0.60
2017-11-15T08:18:50.712Z,0.70
2017-11-15T08:19:50.579Z,1.00
2017-11-15T08:20:50.445Z,0.60
2017-11-15T08:21:50.310Z,1.40
2017-11-15T08:22:50.176Z,0.90
2017-11-15T08:23:50.044Z,1.50
2017-11-15T08:24:49.908Z,0.80
2017-11-15T08:25:49.778Z,0.70
2017-11-15T08:26:49.641Z,0.70
2017-11-15T08:27:49.507Z,1.00
2017-11-15T08:28:49.375Z,1.10
2017-11-15T08:29:49.240Z,1.60
2017-11-15T08:30:49.106Z,1.30
2017-11-15T08:31:48.975Z,1.70
2017-11-15T08:32:48.836Z,1.30
2017-11-15T08:33:48.704Z,1.30
2017-11-15T08:34:48.569Z,1.10
2017-11-15T08:35:48.439Z,1.20
2017-11-15T08:36:48.302Z,1.80
2017-11-15T08:37:48.170Z,1.90
2017-11-15T08:38:48.036Z,2.40
2017-11-15T08:39:47.902Z,1.30
2017-11-15T08:40:47.771Z,1.10
2017-11-15T08:41:47.636Z,1.00
2017-11-15T08:42:47.503Z,0.90
2017-11-15T08:43:47.369Z,1.30
2017-11-15T08:44:47.234Z,1.00
2017-11-15T08:45:47.101Z,1.10
2017-11-15T08:46:46.977Z,1.00
2017-11-15T08:47:46.838Z,1.40
2017-11-15T08:48:46.702Z,0.80
2017-11-15T08:49:46.592Z,0.80
2017-11-15T08:50:46.433Z,0.90
2017-11-15T08:51:46.304Z,0.70
2017-11-15T08:52:46.173Z,0.90
2017-11-15T08:53:46.035Z,0.90
2017-11-15T08:54:45.905Z,0.80
2017-11-15T08:55:45.768Z,0.80
2017-11-15T08:56:45.641Z,1.30
2017-11-15T08:57:45.504Z,0.90
2017-11-15T08:58:45.369Z,0.70
2017-11-15T08:59:45.238Z,0.90
2017-11-15T09:00:45.107Z,1.00
2017-11-15T09:01:44.975Z,1.00
2017-11-15T09:02:44.843Z,1.40
2017-11-15T09:03:44.711Z,1.40
2017-11-15T09:04:44.582Z,1.30
2017-11-15T09:05:44.449Z,2.10
2017-11-15T09:06:44.315Z,1.50
2017-11-15T09:07:44.185Z,1.40
2017-11-15T09:08:44.053Z,1.70
2017-11-15T09:09:43.924Z,2.00
2017-11-15T09:10:43.792Z,1.40
2017-11-15T09:11:43.664Z,1.70
2017-11-15T09:12:43.532Z,1.40
2017-11-15T09:13:43.407Z,1.80
2017-11-15T09:14:43.279Z,2.40
2017-11-15T09:15:43.143Z,1.70
2017-11-15T09:16:43.016Z,1.60
2017-11-15T09:17:42.888Z,2.60
2017-11-15T09:18:42.759Z,1.70
2017-11-15T09:19:42.627Z,2.30
2017-11-15T09:20:42.498Z,2.80
2017-11-15T09:21:42.371Z,2.50
2017-11-15T09:22:42.239Z,2.00
2017-11-15T09:23:42.109Z,2.70
2017-11-15T09:24:41.995Z,2.40
2017-11-15T09:25:41.854Z,1.60
2017-11-15T09:26:41.753Z,2.00
2017-11-15T09:27:41.592Z,1.10
2017-11-15T09:28:41.466Z,1.20
2017-11-15T09:29:41.336Z,0.80
2017-11-15T09:30:41.206Z,3.30
2017-11-15T09:31:41.077Z,3.30
2017-11-15T09:32:40.953Z,3.80
2017-11-15T09:33:40.819Z,3.80
2017-11-15T09:34:40.693Z,2.80
2017-11-15T09:35:40.563Z,1.70
2017-11-15T09:36:40.433Z,1.80
2017-11-15T09:37:40.307Z,1.40
2017-11-15T09:38:40.178Z,1.20
2017-11-15T09:39:40.049Z,1.60
2017-11-15T09:40:39.919Z,1.70
2017-11-15T09:41:39.792Z,1.70
2017-11-15T09:42:39.665Z,3.10
2017-11-15T09:43:39.539Z,1.50
2017-11-15T09:44:39.406Z,1.90
2017-11-15T09:45:39.280Z,1.40
2017-11-15T09:46:39.149Z,2.60
2017-11-15T09:47:39.020Z,1.70
2017-11-15T09:48:38.896Z,1.20
2017-11-15T09:49:38.765Z,2.00
2017-11-15T09:50:38.642Z,1.80
2017-11-15T09:51:38.510Z,1.90
2017-11-15T09:52:38.382Z,1.60
2017-11-15T09:53:38.255Z,1.80
2017-11-15T09:54:38.135Z,3.50
2017-11-15T09:55:38.001Z,1.10
2017-11-15T09:56:37.875Z,1.60
2017-11-15T09:57:37.747Z,3.20
2017-11-15T09:58:37.621Z,5.40
2017-11-15T09:59:37.497Z,2.50
2017-11-15T10:00:37.369Z,1.50
2017-11-15T10:01:37.244Z,3.50
2017-11-15T10:02:37.114Z,1.90
2017-11-15T10:03:36.994Z,1.30
2017-11-15T10:04:36.865Z,1.60
2017-11-15T10:05:36.741Z,2.10
2017-11-15T10:06:36.613Z,1.50
2017-11-15T10:07:36.487Z,1.60
2017-11-15T10:08:36.364Z,1.60
2017-11-15T10:09:36.236Z,1.50
2017-11-15T10:10:36.109Z,2.80
2017-11-15T10:11:35.987Z,2.20
2017-11-15T10:12:35.857Z,1.20
2017-11-15T10:13:35.736Z,1.40
2017-11-15T10:14:35.607Z,1.50
2017-11-15T10:15:35.481Z,1.20
2017-11-15T10:16:35.358Z,1.40
2017-11-15T10:17:35.231Z,1.20
2017-11-15T10:18:35.108Z,1.30
2017-11-15T10:19:34.984Z,1.50
2017-11-15T10:20:34.858Z,1.10
2017-11-15T10:21:34.735Z,1.10
2017-11-15T10:22:34.609Z,1.10
2017-11-15T10:23:34.481Z,1.20
2017-11-15T10:24:34.358Z,1.30
2017-11-15T10:25:34.238Z,1.30
2017-11-15T10:26:34.109Z,1.10
2017-11-15T10:27:33.984Z,1.30
2017-11-15T10:28:33.860Z,1.10
2017-11-15T10:29:33.737Z,1.60
2017-11-15T10:30:33.616Z,1.20
2017-11-15T10:31:33.488Z,1.20
2017-11-15T10:32:33.363Z,1.20
2017-11-15T10:33:33.239Z,1.20
2017-11-15T10:34:33.115Z,1.30
2017-11-15T10:35:32.999Z,2.80
2017-11-15T10:36:32.865Z,1.40
2017-11-15T10:37:32.741Z,2.40
2017-11-15T10:38:32.614Z,2.30
2017-11-15T10:39:32.493Z,1.20
2017-11-15T10:40:32.366Z,1.50
2017-11-15T10:41:32.243Z,2.20
2017-11-15T10:42:32.116Z,2.30
2017-11-15T10:43:31.990Z,2.30
2017-11-15T10:44:31.867Z,1.70
2017-11-15T10:45:31.742Z,1.70
2017-11-15T10:46:31.616Z,3.50
2017-11-15T10:47:31.492Z,2.50
2017-11-15T10:48:31.372Z,2.10
2017-11-15T10:49:31.242Z,2.80
2017-11-15T10:50:31.117Z,1.80
2017-11-15T10:51:30.992Z,1.20
2017-11-15T10:52:30.867Z,1.90
2017-11-15T10:53:30.749Z,1.30
2017-11-15T10:54:30.617Z,2.00
2017-11-15T10:55:30.490Z,1.30
2017-11-15T10:56:30.366Z,1.40
2017-11-15T10:57:30.241Z,1.30
2017-11-15T10:58:30.121Z,1.80
2017-11-15T10:59:29.990Z,1.70
2017-11-15T11:00:29.866Z,2.20
2017-11-15T11:01:29.746Z,1.60
2017-11-15T11:02:29.615Z,1.80
2017-11-15T11:03:29.489Z,1.60
2017-11-15T11:04:29.365Z,1.20
2017-11-15T11:05:29.241Z,2.50
2017-11-15T11:06:29.112Z,1.20
2017-11-15T11:07:28.987Z,1.30
2017-11-15T11:08:28.862Z,1.70
2017-11-15T11:09:28.737Z,2.00
2017-11-15T11:10:28.613Z,3.00
2017-11-15T11:11:28.487Z,2.00
2017-11-15T11:12:28.357Z,1.30
2017-11-15T11:13:28.234Z,1.70
2017-11-15T11:14:28.111Z,1.30
2017-11-15T11:15:27.986Z,1.30
2017-11-15T11:16:27.858Z,2.10
2017-11-15T11:17:27.734Z,1.20
2017-11-15T11:18:27.614Z,1.20
2017-11-15T11:19:27.479Z,2.00
2017-11-15T11:20:27.356Z,1.60
2017-11-15T11:21:27.229Z,1.30
2017-11-15T11:22:27.110Z,1.40
2017-11-15T11:23:26.978Z,1.40
2017-11-15T11:24:26.851Z,1.40
2017-11-15T11:25:26.727Z,1.20
2017-11-15T11:26:26.601Z,1.20
2017-11-15T11:27:26.475Z,1.60
2017-11-15T11:28:26.351Z,1.30
2017-11-15T11:29:26.225Z,1.10
2017-11-15T11:30:26.116Z,1.30
2017-11-15T11:31:25.971Z,2.30
2017-11-15T11:32:25.850Z,1.40
2017-11-15T11:33:25.724Z,2.70
2017-11-15T11:34:25.599Z,2.00
2017-11-15T11:35:25.469Z,1.40
2017-11-15T11:36:25.345Z,2.10
2017-11-15T11:37:25.222Z,1.70
2017-11-15T11:38:25.093Z,2.50
2017-11-15T11:39:24.968Z,2.10
2017-11-15T11:40:24.844Z,2.30
2017-11-15T11:41:24.721Z,1.60
2017-11-15T11:42:24.590Z,1.20
2017-11-15T11:43:24.479Z,1.20
2017-11-15T11:44:24.339Z,1.20
2017-11-15T11:45:24.213Z,1.10
2017-11-15T11:46:24.088Z,1.60
2017-11-15T11:47:23.962Z,1.60
2017-11-15T11:48:23.835Z,1.70
2017-11-15T11:49:23.709Z,1.30
2017-11-15T11:50:23.584Z,1.80
2017-11-15T11:51:23.458Z,1.80
2017-11-15T11:52:23.336Z,1.30
2017-11-15T11:53:23.213Z,1.90
2017-11-15T11:54:23.081Z,1.40
2017-11-15T11:55:22.955Z,1.30
2017-11-15T11:56:22.832Z,1.40
2017-11-15T11:57:22.705Z,1.20
2017-11-15T11:58:22.579Z,1.90
2017-11-15T11:59:22.451Z,2.30
2017-11-15T12:00:22.329Z,1.20
2017-11-15T12:01:22.201Z,2.20
2017-11-15T12:02:22.074Z,1.60
2017-11-15T12:03:21.949Z,1.90
2017-11-15T12:04:21.825Z,1.40
2017-11-15T12:05:21.702Z,1.40
2017-11-15T12:06:21.578Z,1.10
2017-11-15T12:07:21.445Z,1.20
2017-11-15T12:08:21.321Z,1.70
2017-11-15T12:09:21.195Z,1.80
2017-11-15T12:10:21.071Z,1.30
2017-11-15T12:11:20.941Z,1.50
2017-11-15T12:12:20.819Z,1.10
2017-11-15T12:13:20.691Z,1.10
2017-11-15T12:14:20.565Z,1.00
2017-11-15T12:15:20.439Z,1.50
2017-11-15T12:16:20.312Z,1.70
2017-11-15T12:17:20.188Z,1.10
2017-11-15T12:18:20.067Z,2.00
2017-11-15T12:19:19.936Z,1.20
2017-11-15T12:20:19.809Z,1.20
2017-11-15T12:21:19.685Z,1.20
2017-11-15T12:22:19.557Z,1.80
2017-11-15T12:23:19.432Z,1.10
2017-11-15T12:24:19.305Z,1.30
2017-11-15T12:25:19.182Z,1.40
2017-11-15T12:26:19.057Z,1.40
2017-11-15T12:27:18.929Z,1.50
2017-11-15T12:28:18.804Z,1.40
2017-11-15T12:29:18.681Z,2.10
2017-11-15T12:30:18.550Z,1.00
2017-11-15T12:31:18.429Z,1.20
2017-11-15T12:32:18.303Z,1.20
2017-11-15T12:33:18.176Z,1.80
2017-11-15T12:34:18.050Z,1.40
2017-11-15T12:35:17.926Z,1.10
2017-11-15T12:36:17.802Z,1.00
2017-11-15T12:37:17.676Z,1.00
2017-11-15T12:38:17.554Z,1.10
2017-11-15T12:39:17.425Z,1.20
2017-11-15T12:40:17.303Z,1.20
2017-11-15T12:41:17.176Z,1.10
2017-11-15T12:42:17.048Z,1.30
2017-11-15T12:43:16.927Z,1.10
2017-11-15T12:44:16.801Z,1.50
2017-11-15T12:45:16.676Z,1.20
2017-11-15T12:46:16.553Z,1.20
2017-11-15T12:47:16.426Z,1.50
2017-11-15T12:48:16.301Z,2.00
2017-11-15T12:49:16.179Z,1.20
2017-11-15T12:50:16.054Z,1.20
2017-11-15T12:51:15.929Z,1.00
2017-11-15T12:52:15.802Z,1.20
2017-11-15T12:53:15.681Z,1.00
2017-11-15T12:54:15.554Z,1.40
2017-11-15T12:55:15.432Z,1.50
2017-11-15T12:56:15.308Z,1.10
2017-11-15T12:57:15.182Z,1.10
2017-11-15T12:58:15.058Z,1.20
2017-11-15T12:59:14.933Z,1.00
2017-11-15T13:00:14.809Z,1.20
2017-11-15T13:01:14.691Z,1.20
2017-11-15T13:02:14.560Z,1.40
2017-11-15T13:03:14.432Z,1.00
2017-11-15T13:04:14.312Z,1.10
2017-11-15T13:05:14.186Z,1.30
2017-11-15T13:06:14.059Z,1.50
2017-11-15T13:07:13.939Z,1.60
2017-11-15T13:08:13.813Z,1.40
2017-11-15T13:09:13.686Z,1.30
2017-11-15T13:10:13.562Z,1.20
2017-11-15T13:11:13.440Z,1.40
2017-11-15T13:12:13.314Z,1.50
2017-11-15T13:13:13.193Z,1.10
2017-11-15T13:14:13.067Z,1.20
2017-11-15T13:15:12.942Z,1.30
2017-11-15T13:16:12.817Z,1.20
2017-11-15T13:17:12.696Z,2.10